Time;durP1;ratioP1;P1;durP2;ratioP2;P2;SDS_P1;SDS_P2;PMS_P1;PMS_P2;Temp;Humidity;BMP_temperature;BMP_pressure;BME280_temperature;BME280_humidity;BME280_pressure;Samples;Min_cycle;Max_cycle;Signal;HPM_P1;HPM_P2
2022/03/17 00:01:38;;;;;;;9.93;9.02;;;;;;;;;;4999903;28;20103;-63
2022/03/17 00:04:04;;;;;;;10.15;9.27;;;;;;;;;;5002689;28;20033;-65
2022/03/17 00:06:29;;;;;;;8.45;7.55;;;;;;;;;;5000631;28;20034;-64
2022/03/17 00:08:55;;;;;;;10.80;9.80;;;;;;;;;;4998564;28;20034;-63
2022/03/17 00:11:22;;;;;;;9.70;8.73;;;;;;;;;;5002290;28;20459;-63
2022/03/17 00:13:47;;;;;;;8.85;8.05;;;;;;;;;;5001590;28;20467;-63
2022/03/17 00:16:13;;;;;;;13.05;9.63;;;;;;;;;;5000724;28;20042;-63
2022/03/17 00:18:38;;;;;;;8.35;7.60;;;;;;;;;;5001490;28;20037;-64
2022/03/17 00:21:04;;;;;;;10.43;8.18;;;;;;;;;;4997926;28;20112;-63
2022/03/17 00:23:30;;;;;;;9.10;8.27;;;;;;;;;;4998354;28;20029;-64
2022/03/17 00:25:55;;;;;;;9.88;8.88;;;;;;;;;;5001623;28;20037;-64
2022/03/17 00:28:21;;;;;;;9.30;8.10;;;;;;;;;;4999652;28;20037;-67
2022/03/17 00:30:46;;;;;;;8.30;7.63;;;;;;;;;;4996908;28;20034;-65
2022/03/17 00:33:12;;;;;;;10.30;8.68;;;;;;;;;;4999463;28;20026;-64
2022/03/17 00:35:42;;;;;;;9.35;8.52;;;;;;;;;;5000777;28;20034;-63
2022/03/17 00:38:17;;;;;;;9.73;8.73;;;;;;;;;;5000758;28;20092;-64
2022/03/17 00:40:45;;;;;;;8.15;7.50;;;;;;;;;;5000207;28;20054;-63
2022/03/17 00:43:12;;;;;;;8.85;7.90;;;;;;;;;;5003730;28;20034;-63
2022/03/17 00:45:39;;;;;;;10.25;9.35;;;;;;;;;;5001918;28;20141;-66
2022/03/17 00:48:05;;;;;;;10.57;9.57;;;;;;;;;;5000345;28;20109;-66
2022/03/17 00:50:31;;;;;;;10.82;9.82;;;;;;;;;;4999475;28;20531;-66
2022/03/17 00:52:56;;;;;;;9.50;8.52;;;;;;;;;;4998843;28;20121;-67
2022/03/17 00:55:22;;;;;;;11.52;9.88;;;;;;;;;;4998249;28;20040;-65
2022/03/17 00:57:49;;;;;;;11.70;10.57;;;;;;;;;;5000903;28;20125;-67
2022/03/17 01:00:16;;;;;;;9.88;7.93;;;;;;;;;;4998685;28;20124;-64
2022/03/17 01:02:46;;;;;;;7.95;7.28;;;;;;;;;;4998540;28;20026;-62
2022/03/17 01:05:13;;;;;;;8.18;7.50;;;;;;;;;;4999768;28;20128;-66
2022/03/17 01:07:39;;;;;;;9.98;8.85;;;;;;;;;;4998580;28;20042;-65
2022/03/17 01:10:06;;;;;;;9.52;7.97;;;;;;;;;;4995635;28;20341;-63
2022/03/17 01:12:32;;;;;;;9.25;8.35;;;;;;;;;;4999868;28;20030;-64
2022/03/17 01:14:58;;;;;;;10.55;9.60;;;;;;;;;;4999738;28;20046;-63
2022/03/17 01:17:23;;;;;;;14.57;10.07;;;;;;;;;;4997801;28;20060;-63
2022/03/17 01:19:48;;;;;;;11.15;10.15;;;;;;;;;;4985367;28;20040;-63
2022/03/17 01:22:14;;;;;;;11.85;9.63;;;;;;;;;;5001921;28;20119;-63
2022/03/17 01:24:40;;;;;;;11.27;10.20;;;;;;;;;;5000511;28;20044;-65
2022/03/17 01:27:05;;;;;;;9.57;8.65;;;;;;;;;;5001440;28;20100;-63
2022/03/17 01:29:31;;;;;;;9.60;8.70;;;;;;;;;;4999380;28;20030;-63
2022/03/17 01:31:56;;;;;;;9.20;8.27;;;;;;;;;;4996677;28;20411;-64
2022/03/17 01:34:21;;;;;;;10.43;8.43;;;;;;;;;;5002298;28;20117;-64
2022/03/17 01:36:47;;;;;;;10.27;9.23;;;;;;;;;;4999380;28;20053;-64
2022/03/17 01:39:12;;;;;;;8.38;7.57;;;;;;;;;;4998130;28;20030;-64
2022/03/17 01:41:39;;;;;;;14.65;9.70;;;;;;;;;;4998943;28;20395;-66
2022/03/17 01:44:06;;;;;;;9.48;8.55;;;;;;;;;;4999291;28;20029;-66
2022/03/17 01:47:26;;;;;;;8.55;7.82;;;;;;;;;;4997758;28;20416;-67
2022/03/17 01:49:16;;;;;;;9.68;8.77;;;;;;;;;;4999789;28;20023;-67
2022/03/17 01:51:45;;;;;;;8.98;8.23;;;;;;;;;;4997823;28;20049;-67
2022/03/17 01:54:10;;;;;;;15.68;13.48;;;;;;;;;;5004120;28;20027;-67
2022/03/17 01:56:36;;;;;;;11.40;8.93;;;;;;;;;;4999894;28;20451;-66
2022/03/17 01:59:01;;;;;;;9.02;8.30;;;;;;;;;;4997676;28;20041;-67
2022/03/17 02:01:27;;;;;;;9.05;8.35;;;;;;;;;;4997692;28;20135;-66
2022/03/17 02:03:53;;;;;;;11.32;10.27;;;;;;;;;;4996214;28;20046;-64
2022/03/17 02:06:18;;;;;;;9.15;8.35;;;;;;;;;;5003523;28;20052;-63
2022/03/17 02:08:44;;;;;;;9.95;9.05;;;;;;;;;;4997312;28;20093;-64
2022/03/17 02:13:54;;;;;;;10.25;9.27;;;;;;;;;;5000713;28;20034;-63
2022/03/17 02:16:19;;;;;;;11.13;8.35;;;;;;;;;;5000184;28;20057;-64
2022/03/17 02:18:46;;;;;;;10.95;9.10;;;;;;;;;;4996878;28;20050;-63
2022/03/17 02:21:12;;;;;;;9.63;8.65;;;;;;;;;;4999056;28;20025;-63
2022/03/17 02:26:22;;;;;;;10.60;9.30;;;;;;;;;;4999544;28;20026;-64
2022/03/17 02:28:47;;;;;;;9.93;8.80;;;;;;;;;;5002302;28;20661;-64
2022/03/17 02:31:13;;;;;;;11.60;10.00;;;;;;;;;;4991817;28;20038;-64
2022/03/17 02:33:40;;;;;;;10.30;9.30;;;;;;;;;;4999908;28;20116;-64
2022/03/17 02:36:06;;;;;;;8.57;7.88;;;;;;;;;;4997788;28;20044;-65
2022/03/17 02:38:33;;;;;;;9.55;8.73;;;;;;;;;;4995230;28;20038;-66
2022/03/17 02:40:59;;;;;;;11.68;8.93;;;;;;;;;;4998348;28;20053;-65
2022/03/17 02:43:24;;;;;;;9.90;8.75;;;;;;;;;;4997175;28;20026;-64
2022/03/17 02:45:50;;;;;;;10.00;9.15;;;;;;;;;;4998011;28;20129;-64
2022/03/17 02:48:16;;;;;;;10.07;9.07;;;;;;;;;;4998249;28;20366;-64
2022/03/17 02:50:42;;;;;;;10.07;9.10;;;;;;;;;;4994779;28;20460;-64
2022/03/17 02:53:09;;;;;;;10.00;8.75;;;;;;;;;;5029588;28;20116;-63
2022/03/17 02:55:37;;;;;;;12.32;10.77;;;;;;;;;;4996164;28;20025;-66
2022/03/17 02:58:04;;;;;;;10.35;9.35;;;;;;;;;;4997958;28;20141;-65
2022/03/17 03:00:30;;;;;;;8.98;8.18;;;;;;;;;;4994825;28;20396;-65
2022/03/17 03:02:55;;;;;;;10.82;9.73;;;;;;;;;;4996143;28;20133;-65
2022/03/17 03:05:22;;;;;;;9.27;8.38;;;;;;;;;;4994741;28;20022;-66
2022/03/17 03:07:47;;;;;;;10.80;9.48;;;;;;;;;;4997896;28;20060;-66
2022/03/17 03:10:13;;;;;;;10.35;8.85;;;;;;;;;;5004817;28;20034;-63
2022/03/17 03:12:38;;;;;;;9.40;8.50;;;;;;;;;;5000591;28;20030;-64
2022/03/17 03:15:04;;;;;;;13.05;9.93;;;;;;;;;;4997906;28;20030;-64
2022/03/17 03:17:29;;;;;;;10.48;8.52;;;;;;;;;;4998322;28;20018;-65
2022/03/17 03:19:55;;;;;;;9.77;8.88;;;;;;;;;;4999590;28;20109;-65
2022/03/17 03:22:20;;;;;;;11.68;10.63;;;;;;;;;;4998263;28;20045;-64
2022/03/17 03:24:46;;;;;;;9.77;8.88;;;;;;;;;;4998603;28;20113;-64
2022/03/17 03:27:12;;;;;;;9.25;8.45;;;;;;;;;;4999673;28;20038;-66
2022/03/17 03:29:37;;;;;;;9.30;8.43;;;;;;;;;;5001163;28;20030;-66
2022/03/17 03:32:04;;;;;;;11.27;9.90;;;;;;;;;;4999538;28;20205;-66
2022/03/17 03:34:30;;;;;;;8.90;8.05;;;;;;;;;;4998041;28;20022;-66
2022/03/17 03:39:40;;;;;;;10.00;9.00;;;;;;;;;;4998288;28;20031;-66
2022/03/17 03:42:07;;;;;;;9.45;8.38;;;;;;;;;;5001686;28;20029;-65
2022/03/17 03:44:33;;;;;;;11.60;9.48;;;;;;;;;;5001949;28;20030;-64
2022/03/17 03:46:59;;;;;;;11.05;7.15;;;;;;;;;;5001835;28;20040;-64
2022/03/17 03:49:24;;;;;;;9.70;8.82;;;;;;;;;;5003423;28;20030;-63
2022/03/17 03:51:50;;;;;;;9.75;8.85;;;;;;;;;;4999911;28;20186;-64
2022/03/17 03:54:16;;;;;;;9.13;8.32;;;;;;;;;;5002323;28;20026;-63
2022/03/17 03:56:53;;;;;;;10.20;7.55;;;;;;;;;;5001680;28;20030;-64
2022/03/17 03:59:21;;;;;;;8.73;7.93;;;;;;;;;;5000679;28;20026;-64
2022/03/17 04:01:52;;;;;;;9.80;8.88;;;;;;;;;;5001477;28;20091;-65
2022/03/17 04:04:19;;;;;;;9.27;8.30;;;;;;;;;;4998754;28;20064;-64
2022/03/17 04:07:05;;;;;;;9.75;8.52;;;;;;;;;;4996997;28;20030;-64
2022/03/17 04:09:34;;;;;;;11.13;9.52;;;;;;;;;;5002795;28;20332;-64
2022/03/17 04:11:59;;;;;;;10.93;9.77;;;;;;;;;;4997214;28;20105;-63
2022/03/17 04:14:25;;;;;;;10.60;9.60;;;;;;;;;;4999722;28;20122;-64
2022/03/17 04:16:51;;;;;;;8.90;8.07;;;;;;;;;;5001284;28;20427;-63
2022/03/17 04:19:16;;;;;;;11.07;8.18;;;;;;;;;;5000104;28;20034;-64
2022/03/17 04:21:43;;;;;;;11.57;10.57;;;;;;;;;;4999264;28;20022;-65
2022/03/17 04:24:09;;;;;;;9.32;8.38;;;;;;;;;;5000126;28;20129;-64
2022/03/17 04:26:35;;;;;;;12.65;9.13;;;;;;;;;;5000825;28;20113;-65
2022/03/17 04:29:00;;;;;;;13.88;10.10;;;;;;;;;;5000679;28;20026;-63
2022/03/17 04:31:26;;;;;;;10.25;9.25;;;;;;;;;;5000524;28;20042;-64
2022/03/17 04:33:52;;;;;;;8.32;7.55;;;;;;;;;;4996620;28;20121;-64
2022/03/17 04:36:18;;;;;;;9.85;8.32;;;;;;;;;;5001238;28;20117;-65
2022/03/17 04:38:44;;;;;;;8.77;7.88;;;;;;;;;;4998783;28;20064;-64
2022/03/17 04:41:10;;;;;;;11.10;7.90;;;;;;;;;;4995036;28;20054;-65
2022/03/17 04:43:37;;;;;;;10.02;9.02;;;;;;;;;;4998633;28;20368;-66
2022/03/17 04:46:02;;;;;;;9.32;8.45;;;;;;;;;;4999262;28;20045;-66
2022/03/17 04:48:28;;;;;;;9.88;8.70;;;;;;;;;;4997422;28;20034;-66
2022/03/17 04:50:54;;;;;;;9.77;8.88;;;;;;;;;;5000714;28;20384;-66
2022/03/17 04:53:30;;;;;;;7.95;7.13;;;;;;;;;;4997313;28;20041;-66
2022/03/17 04:56:01;;;;;;;7.60;6.90;;;;;;;;;;4999336;28;20038;-66
2022/03/17 04:58:28;;;;;;;8.93;7.93;;;;;;;;;;4998292;28;20030;-67
2022/03/17 05:00:55;;;;;;;9.95;8.55;;;;;;;;;;4999788;28;20038;-67
2022/03/17 05:03:21;;;;;;;7.68;6.88;;;;;;;;;;4997641;28;20049;-65
2022/03/17 05:05:47;;;;;;;12.20;9.70;;;;;;;;;;5001513;28;20080;-65
2022/03/17 05:08:12;;;;;;;8.75;8.00;;;;;;;;;;5001215;28;20033;-66
2022/03/17 05:10:38;;;;;;;10.38;8.35;;;;;;;;;;4999350;28;20540;-65
2022/03/17 05:13:07;;;;;;;12.10;8.90;;;;;;;;;;4999319;28;20050;-66
2022/03/17 05:15:33;;;;;;;11.68;9.45;;;;;;;;;;4997275;28;20042;-66
2022/03/17 05:17:59;;;;;;;9.85;8.30;;;;;;;;;;5000080;28;20060;-66
2022/03/17 05:20:25;;;;;;;10.13;8.18;;;;;;;;;;4999399;28;20087;-66
2022/03/17 05:22:50;;;;;;;8.75;7.85;;;;;;;;;;4997145;28;20137;-66
2022/03/17 05:25:16;;;;;;;10.00;9.00;;;;;;;;;;4999976;28;20031;-65
2022/03/17 05:27:43;;;;;;;9.88;8.32;;;;;;;;;;4998896;28;20061;-65
2022/03/17 05:30:10;;;;;;;10.90;9.75;;;;;;;;;;4998672;28;20685;-65
2022/03/17 05:32:36;;;;;;;10.10;8.45;;;;;;;;;;4999470;28;20402;-66
2022/03/17 05:35:02;;;;;;;9.80;8.90;;;;;;;;;;4997439;28;20033;-65
2022/03/17 05:37:27;;;;;;;8.50;7.70;;;;;;;;;;4997657;28;20061;-65
2022/03/17 05:39:53;;;;;;;9.05;8.25;;;;;;;;;;4995883;28;20120;-65
2022/03/17 05:42:18;;;;;;;10.63;9.65;;;;;;;;;;4997762;28;20455;-65
2022/03/17 05:44:44;;;;;;;9.25;8.30;;;;;;;;;;5000590;28;20453;-66
2022/03/17 05:47:09;;;;;;;10.43;9.25;;;;;;;;;;4999966;28;20793;-66
2022/03/17 05:49:34;;;;;;;8.93;8.15;;;;;;;;;;5002500;28;20391;-66
2022/03/17 05:52:00;;;;;;;7.60;6.90;;;;;;;;;;4999381;28;20034;-66
2022/03/17 05:54:25;;;;;;;10.57;9.57;;;;;;;;;;4997763;28;20042;-65
2022/03/17 05:56:51;;;;;;;9.32;8.52;;;;;;;;;;5001110;28;20548;-65
2022/03/17 05:59:16;;;;;;;9.18;8.38;;;;;;;;;;4998685;28;20466;-65
2022/03/17 06:01:42;;;;;;;11.48;9.07;;;;;;;;;;4997996;28;20027;-65
2022/03/17 06:04:07;;;;;;;10.23;8.98;;;;;;;;;;5000448;28;20038;-65
2022/03/17 06:06:33;;;;;;;9.02;8.15;;;;;;;;;;4998213;28;20510;-66
2022/03/17 06:08:58;;;;;;;8.88;8.07;;;;;;;;;;4996880;28;20165;-66
2022/03/17 06:11:24;;;;;;;9.27;8.27;;;;;;;;;;4998604;28;20034;-67
2022/03/17 06:13:49;;;;;;;8.98;8.18;;;;;;;;;;5001335;28;20034;-64
2022/03/17 06:16:15;;;;;;;7.65;6.82;;;;;;;;;;5003524;28;20034;-65
2022/03/17 06:18:40;;;;;;;9.90;8.90;;;;;;;;;;5000603;28;20034;-64
2022/03/17 06:21:06;;;;;;;9.20;8.40;;;;;;;;;;4998658;28;20036;-65
2022/03/17 06:23:32;;;;;;;10.18;9.07;;;;;;;;;;4999451;28;20037;-65
2022/03/17 06:25:57;;;;;;;8.57;7.78;;;;;;;;;;4998845;28;20706;-66
2022/03/17 06:28:23;;;;;;;8.55;7.70;;;;;;;;;;4997709;28;20040;-65
2022/03/17 06:30:48;;;;;;;10.70;9.70;;;;;;;;;;4998325;28;20037;-66
2022/03/17 06:33:14;;;;;;;11.35;10.13;;;;;;;;;;4996721;28;20105;-64
2022/03/17 06:35:40;;;;;;;7.85;7.15;;;;;;;;;;4999908;28;20065;-65
2022/03/17 06:38:07;;;;;;;10.75;9.32;;;;;;;;;;4998559;28;20036;-65
2022/03/17 06:40:33;;;;;;;8.10;7.40;;;;;;;;;;4999874;28;20781;-65
2022/03/17 06:42:59;;;;;;;9.52;8.68;;;;;;;;;;4999231;28;20516;-65
2022/03/17 06:45:26;;;;;;;10.40;9.40;;;;;;;;;;4996183;28;20579;-64
2022/03/17 06:47:51;;;;;;;11.65;10.45;;;;;;;;;;4995380;28;20092;-64
2022/03/17 06:50:20;;;;;;;9.77;8.77;;;;;;;;;;4997943;28;20614;-65
2022/03/17 06:52:46;;;;;;;10.38;9.35;;;;;;;;;;4997496;28;20113;-63
2022/03/17 06:55:11;;;;;;;9.82;8.98;;;;;;;;;;4997947;28;20126;-63
2022/03/17 06:57:37;;;;;;;11.25;9.70;;;;;;;;;;4993421;28;20451;-64
2022/03/17 07:00:06;;;;;;;13.15;9.20;;;;;;;;;;4993028;28;20754;-62
2022/03/17 07:02:31;;;;;;;8.15;7.35;;;;;;;;;;4993201;28;20034;-63
2022/03/17 07:04:56;;;;;;;8.23;7.45;;;;;;;;;;4994790;28;20033;-63
2022/03/17 07:07:23;;;;;;;11.35;8.30;;;;;;;;;;4995035;28;21205;-63
2022/03/17 07:09:49;;;;;;;12.57;8.55;;;;;;;;;;4993700;28;20118;-63
2022/03/17 07:12:14;;;;;;;9.73;8.35;;;;;;;;;;4994339;28;20129;-63
2022/03/17 07:14:40;;;;;;;11.80;8.50;;;;;;;;;;4995399;28;20062;-64
2022/03/17 07:17:05;;;;;;;9.27;8.38;;;;;;;;;;5000060;28;20038;-64
2022/03/17 07:19:31;;;;;;;10.88;9.23;;;;;;;;;;4999336;28;20076;-63
2022/03/17 07:21:57;;;;;;;10.88;8.38;;;;;;;;;;5001215;28;20390;-64
2022/03/17 07:24:22;;;;;;;10.00;8.95;;;;;;;;;;4998253;28;20034;-63
2022/03/17 07:26:47;;;;;;;9.60;8.60;;;;;;;;;;4999218;28;20157;-65
2022/03/17 07:29:13;;;;;;;9.38;8.48;;;;;;;;;;5004815;28;20029;-63
2022/03/17 07:31:38;;;;;;;8.00;7.22;;;;;;;;;;4999229;28;20034;-63
2022/03/17 07:34:04;;;;;;;9.48;8.57;;;;;;;;;;5001068;28;20069;-63
2022/03/17 07:36:30;;;;;;;11.88;9.80;;;;;;;;;;4997716;28;20030;-63
2022/03/17 07:38:57;;;;;;;10.35;7.57;;;;;;;;;;4994874;28;20042;-62
2022/03/17 07:41:22;;;;;;;9.07;7.85;;;;;;;;;;4999657;28;20419;-63
2022/03/17 07:43:48;;;;;;;10.68;9.70;;;;;;;;;;4983872;28;20104;-62
2022/03/17 07:46:14;;;;;;;8.13;7.43;;;;;;;;;;4997240;28;20042;-64
2022/03/17 07:48:41;;;;;;;7.78;7.07;;;;;;;;;;4998623;28;20029;-63
2022/03/17 07:51:07;;;;;;;11.00;8.52;;;;;;;;;;4999417;28;20066;-64
2022/03/17 07:53:32;;;;;;;8.48;7.65;;;;;;;;;;5002748;28;20042;-63
2022/03/17 07:55:58;;;;;;;8.82;8.02;;;;;;;;;;4998654;28;20042;-63
2022/03/17 07:58:25;;;;;;;8.35;7.55;;;;;;;;;;4996798;28;20140;-64
2022/03/17 08:00:54;;;;;;;8.95;7.32;;;;;;;;;;4994638;28;20521;-64
2022/03/17 08:03:20;;;;;;;10.48;7.60;;;;;;;;;;4999934;28;20030;-64
2022/03/17 08:05:47;;;;;;;9.32;8.10;;;;;;;;;;4997893;28;20049;-64
2022/03/17 08:08:16;;;;;;;10.15;7.75;;;;;;;;;;4999979;28;20084;-53
2022/03/17 08:10:42;;;;;;;11.45;9.93;;;;;;;;;;4998809;28;20026;-52
2022/03/17 08:13:09;;;;;;;12.88;7.00;;;;;;;;;;4996887;28;20525;-47
2022/03/17 08:15:36;;;;;;;7.32;6.63;;;;;;;;;;5001004;28;20814;-50
2022/03/17 08:18:02;;;;;;;8.52;7.70;;;;;;;;;;4997756;28;20082;-51
2022/03/17 08:20:27;;;;;;;9.60;8.70;;;;;;;;;;4998470;28;20779;-47
2022/03/17 08:22:53;;;;;;;8.38;6.93;;;;;;;;;;4998105;28;20107;-48
2022/03/17 08:25:18;;;;;;;7.75;7.05;;;;;;;;;;5000410;28;20949;-48
2022/03/17 08:27:44;;;;;;;11.52;8.68;;;;;;;;;;4995684;28;20041;-52
2022/03/17 08:30:10;;;;;;;19.05;9.05;;;;;;;;;;5000406;28;20105;-52
2022/03/17 08:32:36;;;;;;;8.18;7.47;;;;;;;;;;4997935;28;20095;-47
2022/03/17 08:35:02;;;;;;;9.55;8.57;;;;;;;;;;4998658;28;20128;-48
2022/03/17 08:37:27;;;;;;;9.60;7.85;;;;;;;;;;4998398;28;20030;-50
2022/03/17 08:39:53;;;;;;;13.10;7.53;;;;;;;;;;4998632;28;20097;-50
2022/03/17 08:42:18;;;;;;;8.35;7.05;;;;;;;;;;4998919;28;20049;-51
2022/03/17 08:44:43;;;;;;;8.57;7.40;;;;;;;;;;4996799;28;20123;-50
2022/03/17 08:49:53;;;;;;;8.43;7.63;;;;;;;;;;4997589;28;20099;-52
2022/03/17 08:52:19;;;;;;;10.00;8.63;;;;;;;;;;4997058;28;20038;-49
2022/03/17 08:54:44;;;;;;;8.95;8.10;;;;;;;;;;4996565;28;20065;-48
2022/03/17 08:57:11;;;;;;;9.77;8.40;;;;;;;;;;4995703;28;20072;-48
2022/03/17 08:59:37;;;;;;;10.38;9.35;;;;;;;;;;4992570;28;20045;-47
2022/03/17 09:02:08;;;;;;;12.20;7.72;;;;;;;;;;4992612;28;20088;-46
2022/03/17 09:04:34;;;;;;;10.68;9.00;;;;;;;;;;4996874;28;20042;-47
2022/03/17 09:07:01;;;;;;;8.20;7.45;;;;;;;;;;4998501;28;20368;-48
2022/03/17 09:09:27;;;;;;;12.13;9.23;;;;;;;;;;4997479;28;20030;-51
2022/03/17 09:11:53;;;;;;;12.40;8.25;;;;;;;;;;4998227;28;20066;-49
2022/03/17 09:14:20;;;;;;;17.48;8.80;;;;;;;;;;4993131;28;20022;-50
2022/03/17 09:16:45;;;;;;;8.35;7.45;;;;;;;;;;4993634;28;20112;-51
2022/03/17 09:19:11;;;;;;;9.23;8.32;;;;;;;;;;4994831;28;20038;-51
2022/03/17 09:21:36;;;;;;;10.82;8.65;;;;;;;;;;4995781;28;20047;-48
2022/03/17 09:24:03;;;;;;;15.27;10.50;;;;;;;;;;4998696;28;20037;-48
2022/03/17 09:26:30;;;;;;;8.35;7.60;;;;;;;;;;4996116;28;20158;-52
2022/03/17 09:28:55;;;;;;;7.68;6.97;;;;;;;;;;4996444;28;20112;-48
2022/03/17 09:31:22;;;;;;;9.43;8.52;;;;;;;;;;4997161;28;20450;-48
2022/03/17 09:33:47;;;;;;;10.77;9.77;;;;;;;;;;4996923;28;20042;-48
2022/03/17 09:36:13;;;;;;;8.40;7.63;;;;;;;;;;4993171;28;20034;-50
2022/03/17 09:38:38;;;;;;;10.45;9.52;;;;;;;;;;4994966;28;20042;-52
2022/03/17 09:41:23;;;;;;;11.27;9.75;;;;;;;;;;4999243;28;20533;-47
2022/03/17 09:43:49;;;;;;;8.75;7.97;;;;;;;;;;4996846;28;20045;-58
2022/03/17 09:46:16;;;;;;;21.45;9.55;;;;;;;;;;4995038;28;20037;-50
2022/03/17 09:48:43;;;;;;;9.93;9.10;;;;;;;;;;4998057;28;20038;-58
2022/03/17 09:51:09;;;;;;;8.52;7.72;;;;;;;;;;4996386;28;20040;-59
2022/03/17 09:53:35;;;;;;;9.40;8.15;;;;;;;;;;4996386;28;20037;-58
2022/03/17 09:56:00;;;;;;;8.38;7.55;;;;;;;;;;4997836;28;20041;-50
2022/03/17 09:58:26;;;;;;;10.98;8.90;;;;;;;;;;4996642;28;20390;-52
2022/03/17 10:00:53;;;;;;;9.45;8.05;;;;;;;;;;4992739;28;20523;-50
2022/03/17 10:03:25;;;;;;;8.98;7.80;;;;;;;;;;4993499;28;20092;-58
2022/03/17 10:05:52;;;;;;;8.88;8.07;;;;;;;;;;4996024;28;20443;-57
2022/03/17 10:08:20;;;;;;;14.73;8.30;;;;;;;;;;4995749;28;20038;-58
2022/03/17 10:10:46;;;;;;;13.00;8.65;;;;;;;;;;4993613;28;20030;-47
2022/03/17 10:13:17;;;;;;;8.77;7.45;;;;;;;;;;4994724;28;20526;-48
2022/03/17 10:15:46;;;;;;;;;;;;;;;;;;4994483;28;20038;-48
2022/03/17 10:18:26;;;;;;;8.98;8.18;;;;;;;;;;4994011;28;19913;-48
2022/03/17 10:21:10;;;;;;;9.85;8.95;;;;;;;;;;4994957;28;20060;-51
2022/03/17 10:23:53;;;;;;;14.43;8.10;;;;;;;;;;4995622;28;20034;-50
2022/03/17 10:26:46;;;;;;;12.88;9.43;;;;;;;;;;4991259;28;20472;-57
2022/03/17 10:29:20;;;;;;;8.63;7.82;;;;;;;;;;4992758;28;20036;-57
2022/03/17 10:32:16;;;;;;;15.07;9.90;;;;;;;;;;4996815;28;20125;-58
2022/03/17 10:34:47;;;;;;;7.97;7.25;;;;;;;;;;4983166;28;20038;-57
2022/03/17 10:37:16;;;;;;;8.60;7.82;;;;;;;;;;4995162;28;20034;-58
2022/03/17 10:39:44;;;;;;;10.50;9.07;;;;;;;;;;5026934;28;20034;-58
2022/03/17 10:42:10;;;;;;;12.02;9.95;;;;;;;;;;4994290;28;20061;-58
2022/03/17 10:44:38;;;;;;;12.20;8.55;;;;;;;;;;4994545;28;20033;-48
2022/03/17 10:47:04;;;;;;;13.48;9.52;;;;;;;;;;4995253;28;20376;-46
2022/03/17 10:49:29;;;;;;;10.05;8.68;;;;;;;;;;4996490;28;20044;-51
2022/03/17 10:51:56;;;;;;;8.55;7.75;;;;;;;;;;4997762;28;20036;-46
2022/03/17 10:54:22;;;;;;;7.93;7.22;;;;;;;;;;5000408;28;20092;-48
2022/03/17 10:57:02;;;;;;;8.88;8.15;;;;;;;;;;4993977;28;20038;-50
2022/03/17 10:59:47;;;;;;;9.85;8.85;;;;;;;;;;4996985;28;20030;-50
2022/03/17 11:02:14;;;;;;;10.68;8.20;;;;;;;;;;4992500;28;20030;-52
2022/03/17 11:04:41;;;;;;;8.85;7.95;;;;;;;;;;4992415;28;20034;-47
2022/03/17 11:07:11;;;;;;;7.95;7.03;;;;;;;;;;4995566;28;20034;-57
2022/03/17 11:09:40;;;;;;;8.93;8.02;;;;;;;;;;4994360;28;20030;-58
2022/03/17 11:12:07;;;;;;;9.45;8.48;;;;;;;;;;4997016;28;20030;-58
2022/03/17 11:14:33;;;;;;;8.13;7.43;;;;;;;;;;4996021;28;20045;-58
2022/03/17 11:17:03;;;;;;;9.63;8.73;;;;;;;;;;4997506;28;20026;-58
2022/03/17 11:19:29;;;;;;;8.93;8.13;;;;;;;;;;4994093;28;20046;-58
2022/03/17 11:22:05;;;;;;;9.23;8.07;;;;;;;;;;4995530;28;20044;-48
2022/03/17 11:24:30;;;;;;;11.98;9.98;;;;;;;;;;4992489;28;20061;-51
2022/03/17 11:27:10;;;;;;;9.30;8.40;;;;;;;;;;5003000;28;20096;-48
2022/03/17 11:29:47;;;;;;;8.65;7.85;;;;;;;;;;4997111;28;20037;-47
2022/03/17 11:32:30;;;;;;;6.93;6.30;;;;;;;;;;4997092;28;20091;-49
2022/03/17 11:35:09;;;;;;;9.75;8.35;;;;;;;;;;4996173;28;20129;-50
2022/03/17 11:37:35;;;;;;;9.88;7.50;;;;;;;;;;4993447;28;20057;-46
2022/03/17 11:40:16;;;;;;;10.63;9.40;;;;;;;;;;4995891;28;20048;-47
2022/03/17 11:42:54;;;;;;;;;;;;;;;;;;4996308;28;20033;-50
2022/03/17 11:45:20;;;;;;;9.48;8.50;;;;;;;;;;4993914;28;20507;-48
2022/03/17 11:47:55;;;;;;;9.13;8.30;;;;;;;;;;4990701;28;20045;-58
2022/03/17 11:50:22;;;;;;;9.05;7.75;;;;;;;;;;4994259;28;20030;-58
2022/03/17 11:52:55;;;;;;;9.60;8.32;;;;;;;;;;4994037;28;20039;-50
2022/03/17 11:55:47;;;;;;;8.02;7.25;;;;;;;;;;4998676;28;20032;-50
2022/03/17 11:58:16;;;;;;;8.90;7.32;;;;;;;;;;4996472;28;20030;-48
2022/03/17 12:01:02;;;;;;;6.65;6.03;;;;;;;;;;4992404;28;20034;-58
2022/03/17 12:03:49;;;;;;;8.43;6.68;;;;;;;;;;4995562;28;20038;-47
2022/03/17 12:06:20;;;;;;;10.02;7.85;;;;;;;;;;5000956;28;20042;-46
2022/03/17 12:08:59;;;;;;;8.05;6.40;;;;;;;;;;4997712;28;20040;-48
2022/03/17 12:11:29;;;;;;;9.85;9.00;;;;;;;;;;4999400;28;20034;-59
2022/03/17 12:14:25;;;;;;;6.05;5.53;;;;;;;;;;4998360;28;20088;-58
2022/03/17 12:17:09;;;;;;;7.20;6.57;;;;;;;;;;4996943;28;20046;-58
2022/03/17 12:19:39;;;;;;;7.07;6.40;;;;;;;;;;5000158;28;20037;-48
2022/03/17 12:22:10;;;;;;;7.82;7.00;;;;;;;;;;4999011;28;20029;-59
2022/03/17 12:24:50;;;;;;;8.30;6.95;;;;;;;;;;5000419;28;20057;-58
2022/03/17 12:27:18;;;;;;;7.07;6.43;;;;;;;;;;4996378;28;20049;-47
2022/03/17 12:29:47;;;;;;;7.80;7.05;;;;;;;;;;4998239;28;20300;-58
2022/03/17 12:32:20;;;;;;;7.65;7.03;;;;;;;;;;4996816;28;20245;-50
2022/03/17 12:34:48;;;;;;;7.65;6.72;;;;;;;;;;4997085;28;20037;-50
2022/03/17 12:37:15;;;;;;;6.78;6.18;;;;;;;;;;4998298;28;20037;-49
2022/03/17 12:39:41;;;;;;;9.68;7.03;;;;;;;;;;4996545;28;20125;-50
2022/03/17 12:42:21;;;;;;;7.32;6.53;;;;;;;;;;4994404;28;20113;-49
2022/03/17 12:44:50;;;;;;;6.03;5.35;;;;;;;;;;4994120;28;20033;-51
2022/03/17 12:47:16;;;;;;;7.80;6.80;;;;;;;;;;4998518;28;20383;-47
2022/03/17 12:49:42;;;;;;;7.40;6.45;;;;;;;;;;4996076;28;20030;-46
2022/03/17 12:52:21;;;;;;;7.50;6.20;;;;;;;;;;4996426;28;20034;-48
2022/03/17 12:54:48;;;;;;;6.53;5.93;;;;;;;;;;4998904;28;20038;-48
2022/03/17 12:57:13;;;;;;;5.53;5.03;;;;;;;;;;4998412;28;20116;-50
2022/03/17 12:59:38;;;;;;;8.43;6.13;;;;;;;;;;4996206;28;20417;-47
2022/03/17 13:02:05;;;;;;;5.28;4.80;;;;;;;;;;4996301;28;20470;-50
2022/03/17 13:04:31;;;;;;;5.75;5.25;;;;;;;;;;4993020;28;20065;-48
2022/03/17 13:06:57;;;;;;;8.23;6.60;;;;;;;;;;4995191;28;20143;-49
2022/03/17 13:09:32;;;;;;;6.53;5.93;;;;;;;;;;4998759;28;20049;-49
2022/03/17 13:15:00;;;;;;;6.13;5.63;;;;;;;;;;4997076;28;20475;-52
2022/03/17 13:17:37;;;;;;;5.97;5.47;;;;;;;;;;4996465;28;20592;-50
2022/03/17 13:20:15;;;;;;;6.35;5.75;;;;;;;;;;4998269;28;20398;-48
2022/03/17 13:22:41;;;;;;;9.18;6.35;;;;;;;;;;4992639;28;20038;-50
2022/03/17 13:25:08;;;;;;;4.90;4.50;;;;;;;;;;4993149;28;20034;-52
2022/03/17 13:27:54;;;;;;;7.38;6.75;;;;;;;;;;4998188;28;20033;-52
2022/03/17 13:30:20;;;;;;;6.82;6.22;;;;;;;;;;4995982;28;20032;-50
2022/03/17 13:33:01;;;;;;;6.32;5.82;;;;;;;;;;4996250;28;20034;-49
2022/03/17 13:35:27;;;;;;;7.75;6.95;;;;;;;;;;4999959;28;20038;-51
2022/03/17 13:38:07;;;;;;;8.80;6.40;;;;;;;;;;4997514;28;20562;-50
2022/03/17 13:40:52;;;;;;;6.47;5.32;;;;;;;;;;4995927;28;20144;-49
2022/03/17 13:43:27;;;;;;;6.32;5.72;;;;;;;;;;4987154;28;20064;-49
2022/03/17 13:45:53;;;;;;;5.97;5.30;;;;;;;;;;4996713;28;20655;-51
2022/03/17 13:48:24;;;;;;;13.75;6.55;;;;;;;;;;4993069;28;20038;-50
2022/03/17 13:50:51;;;;;;;6.38;5.88;;;;;;;;;;4994360;28;20030;-48
2022/03/17 13:53:25;;;;;;;6.53;5.93;;;;;;;;;;4996688;28;20038;-49
2022/03/17 13:56:04;;;;;;;7.90;5.50;;;;;;;;;;4994659;28;20756;-51
2022/03/17 13:58:31;;;;;;;5.80;5.30;;;;;;;;;;5001148;28;20120;-58
2022/03/17 14:01:12;;;;;;;6.53;6.03;;;;;;;;;;4995013;28;20087;-58
2022/03/17 14:03:44;;;;;;;5.88;5.38;;;;;;;;;;4996802;28;20072;-58
2022/03/17 14:06:17;;;;;;;6.82;6.13;;;;;;;;;;4991080;28;20037;-58
2022/03/17 14:08:47;;;;;;;6.60;5.90;;;;;;;;;;4993114;28;20061;-59
2022/03/17 14:11:17;;;;;;;5.60;5.10;;;;;;;;;;4996491;28;20113;-51
2022/03/17 14:13:48;;;;;;;6.20;5.70;;;;;;;;;;4994795;28;20471;-50
2022/03/17 14:16:15;;;;;;;7.40;5.40;;;;;;;;;;4994853;28;20042;-48
2022/03/17 14:18:41;;;;;;;6.10;5.60;;;;;;;;;;4998470;28;20062;-49
2022/03/17 14:21:08;;;;;;;6.00;4.97;;;;;;;;;;4996455;28;20112;-48
2022/03/17 14:26:20;;;;;;;5.93;5.32;;;;;;;;;;4992459;28;20796;-47
2022/03/17 14:28:45;;;;;;;5.20;4.75;;;;;;;;;;4993923;28;20099;-59
2022/03/17 14:31:12;;;;;;;5.63;5.07;;;;;;;;;;4995264;28;20075;-48
2022/03/17 14:33:39;;;;;;;6.03;5.53;;;;;;;;;;4994254;28;20049;-50
2022/03/17 14:36:05;;;;;;;5.50;5.00;;;;;;;;;;4995607;28;20083;-51
2022/03/17 14:38:33;;;;;;;6.55;5.85;;;;;;;;;;4995842;28;20034;-48
2022/03/17 14:40:58;;;;;;;5.00;4.60;;;;;;;;;;4995743;28;20068;-49
2022/03/17 14:43:24;;;;;;;6.97;4.90;;;;;;;;;;4995659;28;20884;-49
2022/03/17 14:45:49;;;;;;;5.95;5.05;;;;;;;;;;4994403;28;20072;-49
2022/03/17 14:48:14;;;;;;;4.95;4.45;;;;;;;;;;4991706;28;20034;-48
2022/03/17 14:50:40;;;;;;;5.60;5.07;;;;;;;;;;4995673;28;20025;-50
2022/03/17 14:53:05;;;;;;;4.57;4.18;;;;;;;;;;5000620;28;20105;-49
2022/03/17 14:55:31;;;;;;;5.15;4.75;;;;;;;;;;4996609;28;20034;-49
2022/03/17 14:57:56;;;;;;;5.07;4.65;;;;;;;;;;4995996;28;20053;-52
2022/03/17 15:00:22;;;;;;;4.63;4.22;;;;;;;;;;4996242;28;20037;-52